Terminal Aerodrome Forecast
Issued by NWS Pueblo, CO

Home | Current Version | Previous Version | Text Only | Print | Product List | Glossary On
Versions: 1 2 3 4 5 6 7 8 9 10 11 12 13 14 15 16 17 18 19 20 21 22 23 24 25 26 27 28 29 30 31 32 33 34 35 36 37 38 39 40 41 42 43 44 45 46 47
000
FTUS45 KPUB 280020 AAA
TAFCOS
TAF AMD
KCOS 280020Z 2800/2824 23006KT P6SM SCT100 BKN150
     FM280200 28009KT P6SM SCT080 BKN120
     FM280600 01007KT P6SM FEW100 BKN140
     FM281200 VRB06KT P6SM FEW100 SCT200
     FM281800 18010KT P6SM SCT100
     FM282100 19012KT P6SM VCTS SCT100CB BKN150=

USA.gov is the U.S. government's official web portal to all federal, state and local government web resources and services.